sensor_id;sensor_type;location;lat;lon;timestamp;P1;durP1;ratioP1;P2;durP2;ratioP2
22005;SDS011;11167;46.988;15.470;2022-09-01T00:01:10;12.80;;;5.28;;
22005;SDS011;11167;46.988;15.470;2022-09-01T00:03:15;8.48;;;4.58;;
22005;SDS011;11167;46.988;15.470;2022-09-01T00:05:19;9.88;;;4.67;;
22005;SDS011;11167;46.988;15.470;2022-09-01T00:07:20;6.65;;;3.90;;
22005;SDS011;11167;46.988;15.470;2022-09-01T00:09:22;6.75;;;4.22;;
22005;SDS011;11167;46.988;15.470;2022-09-01T00:11:25;7.37;;;4.10;;
22005;SDS011;11167;46.988;15.470;2022-09-01T00:13:27;7.85;;;4.40;;
22005;SDS011;11167;46.988;15.470;2022-09-01T00:15:30;6.33;;;4.33;;
22005;SDS011;11167;46.988;15.470;2022-09-01T00:17:31;6.78;;;4.45;;
22005;SDS011;11167;46.988;15.470;2022-09-01T00:19:33;7.03;;;4.40;;
22005;SDS011;11167;46.988;15.470;2022-09-01T00:21:37;9.28;;;4.50;;
22005;SDS011;11167;46.988;15.470;2022-09-01T00:23:40;7.53;;;4.17;;
22005;SDS011;11167;46.988;15.470;2022-09-01T00:25:41;8.98;;;4.42;;
22005;SDS011;11167;46.988;15.470;2022-09-01T00:27:42;6.67;;;3.75;;
22005;SDS011;11167;46.988;15.470;2022-09-01T00:29:44;6.15;;;3.98;;
22005;SDS011;11167;46.988;15.470;2022-09-01T00:31:45;8.80;;;4.67;;
22005;SDS011;11167;46.988;15.470;2022-09-01T00:33:46;8.38;;;4.22;;
22005;SDS011;11167;46.988;15.470;2022-09-01T00:35:48;8.40;;;4.37;;
22005;SDS011;11167;46.988;15.470;2022-09-01T00:37:49;8.03;;;4.58;;
22005;SDS011;11167;46.988;15.470;2022-09-01T00:39:50;6.30;;;4.10;;
22005;SDS011;11167;46.988;15.470;2022-09-01T00:41:51;6.67;;;3.72;;
22005;SDS011;11167;46.988;15.470;2022-09-01T00:43:54;8.40;;;4.15;;
22005;SDS011;11167;46.988;15.470;2022-09-01T00:45:58;6.50;;;3.92;;
22005;SDS011;11167;46.988;15.470;2022-09-01T00:48:00;6.92;;;3.55;;
22005;SDS011;11167;46.988;15.470;2022-09-01T00:50:04;6.85;;;4.05;;
22005;SDS011;11167;46.988;15.470;2022-09-01T00:52:12;7.80;;;3.85;;
22005;SDS011;11167;46.988;15.470;2022-09-01T00:56:34;5.10;;;3.67;;
22005;SDS011;11167;46.988;15.470;2022-09-01T00:58:39;8.18;;;4.00;;
22005;SDS011;11167;46.988;15.470;2022-09-01T01:00:41;6.53;;;3.45;;
22005;SDS011;11167;46.988;15.470;2022-09-01T01:02:44;6.28;;;4.00;;
22005;SDS011;11167;46.988;15.470;2022-09-01T01:04:47;7.92;;;3.98;;
22005;SDS011;11167;46.988;15.470;2022-09-01T01:06:49;6.67;;;4.20;;
22005;SDS011;11167;46.988;15.470;2022-09-01T01:08:55;7.25;;;4.10;;
22005;SDS011;11167;46.988;15.470;2022-09-01T01:11:00;7.95;;;4.03;;
22005;SDS011;11167;46.988;15.470;2022-09-01T01:13:07;7.70;;;4.10;;
22005;SDS011;11167;46.988;15.470;2022-09-01T01:15:12;6.53;;;3.62;;
22005;SDS011;11167;46.988;15.470;2022-09-01T01:17:15;7.55;;;3.87;;
22005;SDS011;11167;46.988;15.470;2022-09-01T01:21:44;5.95;;;3.33;;
22005;SDS011;11167;46.988;15.470;2022-09-01T01:26:28;4.92;;;3.22;;
22005;SDS011;11167;46.988;15.470;2022-09-01T01:28:30;5.53;;;3.20;;
22005;SDS011;11167;46.988;15.470;2022-09-01T01:30:33;6.17;;;3.42;;
22005;SDS011;11167;46.988;15.470;2022-09-01T01:32:36;5.35;;;3.45;;
22005;SDS011;11167;46.988;15.470;2022-09-01T01:34:40;4.05;;;2.80;;
22005;SDS011;11167;46.988;15.470;2022-09-01T01:36:43;4.13;;;2.97;;
22005;SDS011;11167;46.988;15.470;2022-09-01T01:38:48;4.67;;;3.08;;
22005;SDS011;11167;46.988;15.470;2022-09-01T01:40:50;3.85;;;2.98;;
22005;SDS011;11167;46.988;15.470;2022-09-01T01:42:53;6.08;;;3.25;;
22005;SDS011;11167;46.988;15.470;2022-09-01T01:44:56;4.20;;;2.83;;
22005;SDS011;11167;46.988;15.470;2022-09-01T01:46:58;4.90;;;3.10;;
22005;SDS011;11167;46.988;15.470;2022-09-01T01:48:59;4.00;;;3.00;;
22005;SDS011;11167;46.988;15.470;2022-09-01T01:51:02;4.50;;;2.97;;
22005;SDS011;11167;46.988;15.470;2022-09-01T01:53:06;5.97;;;3.47;;
22005;SDS011;11167;46.988;15.470;2022-09-01T01:55:08;4.60;;;3.00;;
22005;SDS011;11167;46.988;15.470;2022-09-01T01:57:11;4.85;;;2.80;;
22005;SDS011;11167;46.988;15.470;2022-09-01T01:59:17;4.70;;;2.60;;
22005;SDS011;11167;46.988;15.470;2022-09-01T02:01:19;4.35;;;2.92;;
22005;SDS011;11167;46.988;15.470;2022-09-01T02:05:27;4.35;;;2.55;;
22005;SDS011;11167;46.988;15.470;2022-09-01T02:07:31;3.05;;;2.50;;
22005;SDS011;11167;46.988;15.470;2022-09-01T02:09:32;4.17;;;2.87;;
22005;SDS011;11167;46.988;15.470;2022-09-01T02:11:34;4.53;;;2.90;;
22005;SDS011;11167;46.988;15.470;2022-09-01T02:13:37;4.05;;;2.65;;
22005;SDS011;11167;46.988;15.470;2022-09-01T02:15:39;3.65;;;2.30;;
22005;SDS011;11167;46.988;15.470;2022-09-01T02:17:43;3.02;;;2.45;;
22005;SDS011;11167;46.988;15.470;2022-09-01T02:19:45;4.45;;;2.58;;
22005;SDS011;11167;46.988;15.470;2022-09-01T02:21:46;2.95;;;2.30;;
22005;SDS011;11167;46.988;15.470;2022-09-01T02:23:51;3.27;;;2.25;;
22005;SDS011;11167;46.988;15.470;2022-09-01T02:25:59;3.55;;;2.65;;
22005;SDS011;11167;46.988;15.470;2022-09-01T02:28:04;3.85;;;2.40;;
22005;SDS011;11167;46.988;15.470;2022-09-01T02:32:30;2.37;;;2.17;;
22005;SDS011;11167;46.988;15.470;2022-09-01T02:34:31;2.72;;;2.30;;
22005;SDS011;11167;46.988;15.470;2022-09-01T02:36:34;3.05;;;2.40;;
22005;SDS011;11167;46.988;15.470;2022-09-01T02:38:37;2.58;;;2.30;;
22005;SDS011;11167;46.988;15.470;2022-09-01T02:40:39;2.98;;;2.20;;
22005;SDS011;11167;46.988;15.470;2022-09-01T02:42:43;3.05;;;2.27;;
22005;SDS011;11167;46.988;15.470;2022-09-01T02:44:46;2.90;;;2.25;;
22005;SDS011;11167;46.988;15.470;2022-09-01T02:46:48;4.22;;;2.52;;
22005;SDS011;11167;46.988;15.470;2022-09-01T02:48:50;2.92;;;2.30;;
22005;SDS011;11167;46.988;15.470;2022-09-01T02:50:52;2.45;;;2.22;;
22005;SDS011;11167;46.988;15.470;2022-09-01T02:52:55;2.52;;;2.33;;
22005;SDS011;11167;46.988;15.470;2022-09-01T02:54:57;3.05;;;2.50;;
22005;SDS011;11167;46.988;15.470;2022-09-01T02:56:59;2.40;;;2.20;;
22005;SDS011;11167;46.988;15.470;2022-09-01T02:59:01;2.40;;;2.20;;
22005;SDS011;11167;46.988;15.470;2022-09-01T03:01:03;2.70;;;2.30;;
22005;SDS011;11167;46.988;15.470;2022-09-01T03:03:04;2.58;;;2.30;;
22005;SDS011;11167;46.988;15.470;2022-09-01T03:05:06;2.55;;;2.35;;
22005;SDS011;11167;46.988;15.470;2022-09-01T03:07:08;3.37;;;2.30;;
22005;SDS011;11167;46.988;15.470;2022-09-01T03:09:10;2.85;;;2.40;;
22005;SDS011;11167;46.988;15.470;2022-09-01T03:11:14;3.08;;;2.50;;
22005;SDS011;11167;46.988;15.470;2022-09-01T03:13:17;3.25;;;2.22;;
22005;SDS011;11167;46.988;15.470;2022-09-01T03:15:20;3.75;;;2.20;;
22005;SDS011;11167;46.988;15.470;2022-09-01T03:17:22;2.37;;;2.17;;
22005;SDS011;11167;46.988;15.470;2022-09-01T03:19:23;2.95;;;2.47;;
22005;SDS011;11167;46.988;15.470;2022-09-01T03:21:25;2.95;;;2.50;;
22005;SDS011;11167;46.988;15.470;2022-09-01T03:23:29;3.08;;;2.77;;
22005;SDS011;11167;46.988;15.470;2022-09-01T03:25:31;3.77;;;2.40;;
22005;SDS011;11167;46.988;15.470;2022-09-01T03:27:33;3.45;;;2.60;;
22005;SDS011;11167;46.988;15.470;2022-09-01T03:29:34;2.92;;;2.50;;
22005;SDS011;11167;46.988;15.470;2022-09-01T03:31:35;2.50;;;2.30;;
22005;SDS011;11167;46.988;15.470;2022-09-01T03:33:37;3.00;;;2.70;;
22005;SDS011;11167;46.988;15.470;2022-09-01T03:35:38;2.67;;;2.35;;
22005;SDS011;11167;46.988;15.470;2022-09-01T03:37:40;2.90;;;2.50;;
22005;SDS011;11167;46.988;15.470;2022-09-01T03:39:43;2.95;;;2.40;;
22005;SDS011;11167;46.988;15.470;2022-09-01T03:41:46;3.80;;;2.45;;
22005;SDS011;11167;46.988;15.470;2022-09-01T03:43:47;3.15;;;2.50;;
22005;SDS011;11167;46.988;15.470;2022-09-01T03:45:49;2.52;;;2.30;;
22005;SDS011;11167;46.988;15.470;2022-09-01T03:47:51;2.47;;;2.27;;
22005;SDS011;11167;46.988;15.470;2022-09-01T03:49:57;3.03;;;2.40;;
22005;SDS011;11167;46.988;15.470;2022-09-01T03:52:01;3.02;;;2.17;;
22005;SDS011;11167;46.988;15.470;2022-09-01T03:54:02;2.77;;;1.95;;
22005;SDS011;11167;46.988;15.470;2022-09-01T03:56:04;2.25;;;2.05;;
22005;SDS011;11167;46.988;15.470;2022-09-01T03:58:07;2.58;;;2.37;;
22005;SDS011;11167;46.988;15.470;2022-09-01T04:00:09;2.70;;;2.10;;
22005;SDS011;11167;46.988;15.470;2022-09-01T04:02:13;2.52;;;2.33;;
22005;SDS011;11167;46.988;15.470;2022-09-01T04:04:14;2.42;;;2.10;;
22005;SDS011;11167;46.988;15.470;2022-09-01T04:06:16;2.87;;;2.05;;
22005;SDS011;11167;46.988;15.470;2022-09-01T04:08:19;2.60;;;2.22;;
22005;SDS011;11167;46.988;15.470;2022-09-01T04:10:26;2.87;;;2.20;;
22005;SDS011;11167;46.988;15.470;2022-09-01T04:12:27;1.85;;;1.75;;
22005;SDS011;11167;46.988;15.470;2022-09-01T04:14:30;2.22;;;1.92;;
22005;SDS011;11167;46.988;15.470;2022-09-01T04:16:32;3.12;;;2.10;;
22005;SDS011;11167;46.988;15.470;2022-09-01T04:18:53;2.30;;;2.10;;
22005;SDS011;11167;46.988;15.470;2022-09-01T04:20:55;2.20;;;2.00;;
22005;SDS011;11167;46.988;15.470;2022-09-01T04:22:58;2.47;;;2.15;;
22005;SDS011;11167;46.988;15.470;2022-09-01T04:25:00;2.40;;;2.17;;
22005;SDS011;11167;46.988;15.470;2022-09-01T04:27:02;2.45;;;2.20;;
22005;SDS011;11167;46.988;15.470;2022-09-01T04:29:04;2.60;;;2.10;;
22005;SDS011;11167;46.988;15.470;2022-09-01T04:31:08;2.15;;;1.98;;
22005;SDS011;11167;46.988;15.470;2022-09-01T04:35:39;2.75;;;1.92;;
22005;SDS011;11167;46.988;15.470;2022-09-01T04:37:40;2.05;;;1.95;;
22005;SDS011;11167;46.988;15.470;2022-09-01T04:39:47;2.15;;;1.95;;
22005;SDS011;11167;46.988;15.470;2022-09-01T04:41:51;2.40;;;2.20;;
22005;SDS011;11167;46.988;15.470;2022-09-01T04:43:53;2.20;;;2.00;;
22005;SDS011;11167;46.988;15.470;2022-09-01T04:45:58;2.20;;;2.00;;
22005;SDS011;11167;46.988;15.470;2022-09-01T04:48:01;2.20;;;2.00;;
22005;SDS011;11167;46.988;15.470;2022-09-01T04:50:04;2.07;;;1.90;;
22005;SDS011;11167;46.988;15.470;2022-09-01T04:52:08;2.30;;;2.10;;
22005;SDS011;11167;46.988;15.470;2022-09-01T04:54:09;2.45;;;2.00;;
22005;SDS011;11167;46.988;15.470;2022-09-01T04:56:14;2.20;;;2.00;;
22005;SDS011;11167;46.988;15.470;2022-09-01T04:58:18;2.00;;;1.80;;
22005;SDS011;11167;46.988;15.470;2022-09-01T05:00:20;3.55;;;2.00;;
22005;SDS011;11167;46.988;15.470;2022-09-01T05:02:23;2.50;;;1.85;;
22005;SDS011;11167;46.988;15.470;2022-09-01T05:04:27;3.30;;;2.00;;
22005;SDS011;11167;46.988;15.470;2022-09-01T05:06:32;2.20;;;1.90;;
22005;SDS011;11167;46.988;15.470;2022-09-01T05:08:34;2.60;;;1.90;;
22005;SDS011;11167;46.988;15.470;2022-09-01T05:10:37;2.47;;;2.20;;
22005;SDS011;11167;46.988;15.470;2022-09-01T05:12:41;2.90;;;2.00;;
22005;SDS011;11167;46.988;15.470;2022-09-01T05:14:45;2.20;;;2.00;;
22005;SDS011;11167;46.988;15.470;2022-09-01T05:16:48;2.30;;;2.10;;
22005;SDS011;11167;46.988;15.470;2022-09-01T05:18:50;2.22;;;2.02;;
22005;SDS011;11167;46.988;15.470;2022-09-01T05:20:53;2.20;;;2.00;;
22005;SDS011;11167;46.988;15.470;2022-09-01T05:22:55;2.92;;;2.30;;
22005;SDS011;11167;46.988;15.470;2022-09-01T05:24:57;2.25;;;2.05;;
22005;SDS011;11167;46.988;15.470;2022-09-01T05:27:03;2.00;;;1.80;;
22005;SDS011;11167;46.988;15.470;2022-09-01T05:29:06;2.67;;;2.08;;
22005;SDS011;11167;46.988;15.470;2022-09-01T05:31:10;2.30;;;2.10;;
22005;SDS011;11167;46.988;15.470;2022-09-01T05:33:12;2.20;;;2.00;;
22005;SDS011;11167;46.988;15.470;2022-09-01T05:35:16;3.35;;;2.12;;
22005;SDS011;11167;46.988;15.470;2022-09-01T05:37:18;2.40;;;2.20;;
22005;SDS011;11167;46.988;15.470;2022-09-01T05:39:20;2.47;;;2.02;;
22005;SDS011;11167;46.988;15.470;2022-09-01T05:41:21;2.50;;;2.20;;
22005;SDS011;11167;46.988;15.470;2022-09-01T05:43:24;2.37;;;2.10;;
22005;SDS011;11167;46.988;15.470;2022-09-01T05:45:27;2.60;;;2.17;;
22005;SDS011;11167;46.988;15.470;2022-09-01T05:47:29;1.85;;;1.75;;
22005;SDS011;11167;46.988;15.470;2022-09-01T05:49:30;1.82;;;1.72;;
22005;SDS011;11167;46.988;15.470;2022-09-01T05:51:32;2.08;;;1.90;;
22005;SDS011;11167;46.988;15.470;2022-09-01T05:53:36;1.90;;;1.77;;
22005;SDS011;11167;46.988;15.470;2022-09-01T05:55:37;3.05;;;1.98;;
22005;SDS011;11167;46.988;15.470;2022-09-01T05:57:38;3.05;;;2.05;;
22005;SDS011;11167;46.988;15.470;2022-09-01T05:59:40;2.87;;;2.10;;
22005;SDS011;11167;46.988;15.470;2022-09-01T06:01:41;2.25;;;2.05;;
22005;SDS011;11167;46.988;15.470;2022-09-01T06:03:42;2.27;;;2.08;;
22005;SDS011;11167;46.988;15.470;2022-09-01T06:05:44;4.15;;;2.27;;
22005;SDS011;11167;46.988;15.470;2022-09-01T06:07:47;2.65;;;2.10;;
22005;SDS011;11167;46.988;15.470;2022-09-01T06:09:48;2.10;;;1.90;;
22005;SDS011;11167;46.988;15.470;2022-09-01T06:11:50;2.42;;;1.95;;
22005;SDS011;11167;46.988;15.470;2022-09-01T06:13:52;1.87;;;1.77;;
22005;SDS011;11167;46.988;15.470;2022-09-01T06:17:58;2.05;;;1.85;;
22005;SDS011;11167;46.988;15.470;2022-09-01T06:20:00;2.15;;;1.95;;
22005;SDS011;11167;46.988;15.470;2022-09-01T06:22:05;1.98;;;1.70;;
22005;SDS011;11167;46.988;15.470;2022-09-01T06:24:19;1.70;;;1.60;;
22005;SDS011;11167;46.988;15.470;2022-09-01T06:26:28;2.42;;;1.92;;
22005;SDS011;11167;46.988;15.470;2022-09-01T06:28:31;3.42;;;1.70;;
22005;SDS011;11167;46.988;15.470;2022-09-01T06:30:32;2.33;;;2.00;;
22005;SDS011;11167;46.988;15.470;2022-09-01T06:32:35;1.87;;;1.77;;
22005;SDS011;11167;46.988;15.470;2022-09-01T06:34:38;1.87;;;1.77;;
22005;SDS011;11167;46.988;15.470;2022-09-01T06:36:41;1.70;;;1.60;;
22005;SDS011;11167;46.988;15.470;2022-09-01T06:38:43;2.00;;;1.90;;
22005;SDS011;11167;46.988;15.470;2022-09-01T06:40:45;1.95;;;1.80;;
22005;SDS011;11167;46.988;15.470;2022-09-01T06:42:48;2.10;;;1.90;;
22005;SDS011;11167;46.988;15.470;2022-09-01T06:44:50;2.05;;;1.90;;
22005;SDS011;11167;46.988;15.470;2022-09-01T06:46:52;2.10;;;1.82;;
22005;SDS011;11167;46.988;15.470;2022-09-01T06:48:53;3.35;;;2.15;;
22005;SDS011;11167;46.988;15.470;2022-09-01T06:50:58;2.40;;;2.00;;
22005;SDS011;11167;46.988;15.470;2022-09-01T06:53:02;2.70;;;2.02;;
22005;SDS011;11167;46.988;15.470;2022-09-01T06:55:05;2.35;;;2.15;;
22005;SDS011;11167;46.988;15.470;2022-09-01T06:57:07;2.05;;;1.77;;
22005;SDS011;11167;46.988;15.470;2022-09-01T06:59:08;1.85;;;1.75;;
22005;SDS011;11167;46.988;15.470;2022-09-01T07:01:10;2.17;;;1.98;;
22005;SDS011;11167;46.988;15.470;2022-09-01T07:03:15;2.72;;;1.90;;
22005;SDS011;11167;46.988;15.470;2022-09-01T07:05:17;1.80;;;1.67;;
22005;SDS011;11167;46.988;15.470;2022-09-01T07:07:20;1.90;;;1.80;;
22005;SDS011;11167;46.988;15.470;2022-09-01T07:09:22;3.02;;;1.90;;
22005;SDS011;11167;46.988;15.470;2022-09-01T07:11:25;1.85;;;1.75;;
22005;SDS011;11167;46.988;15.470;2022-09-01T07:13:28;2.10;;;1.90;;
22005;SDS011;11167;46.988;15.470;2022-09-01T07:15:30;2.27;;;1.70;;
22005;SDS011;11167;46.988;15.470;2022-09-01T07:17:31;2.15;;;1.90;;
22005;SDS011;11167;46.988;15.470;2022-09-01T07:19:33;2.00;;;1.80;;
22005;SDS011;11167;46.988;15.470;2022-09-01T07:21:35;2.22;;;2.02;;
22005;SDS011;11167;46.988;15.470;2022-09-01T07:23:36;1.90;;;1.70;;
22005;SDS011;11167;46.988;15.470;2022-09-01T07:28:12;2.40;;;1.87;;
22005;SDS011;11167;46.988;15.470;2022-09-01T07:30:16;2.22;;;2.02;;
22005;SDS011;11167;46.988;15.470;2022-09-01T07:32:18;1.90;;;1.80;;
22005;SDS011;11167;46.988;15.470;2022-09-01T07:34:20;2.58;;;1.90;;
22005;SDS011;11167;46.988;15.470;2022-09-01T07:36:21;2.10;;;1.85;;
22005;SDS011;11167;46.988;15.470;2022-09-01T07:38:23;4.42;;;2.20;;
22005;SDS011;11167;46.988;15.470;2022-09-01T07:40:25;2.95;;;2.10;;
22005;SDS011;11167;46.988;15.470;2022-09-01T07:42:29;2.12;;;1.92;;
22005;SDS011;11167;46.988;15.470;2022-09-01T07:44:35;3.35;;;2.08;;
22005;SDS011;11167;46.988;15.470;2022-09-01T07:46:40;2.37;;;1.80;;
22005;SDS011;11167;46.988;15.470;2022-09-01T07:48:41;4.25;;;2.12;;
22005;SDS011;11167;46.988;15.470;2022-09-01T07:50:43;2.60;;;2.40;;
22005;SDS011;11167;46.988;15.470;2022-09-01T07:52:47;2.13;;;1.93;;
22005;SDS011;11167;46.988;15.470;2022-09-01T07:54:53;2.25;;;2.05;;
22005;SDS011;11167;46.988;15.470;2022-09-01T07:56:59;3.08;;;2.12;;
22005;SDS011;11167;46.988;15.470;2022-09-01T07:59:01;3.55;;;2.20;;
22005;SDS011;11167;46.988;15.470;2022-09-01T08:03:25;2.22;;;2.02;;
22005;SDS011;11167;46.988;15.470;2022-09-01T08:05:26;2.27;;;2.08;;
22005;SDS011;11167;46.988;15.470;2022-09-01T08:07:28;2.42;;;2.00;;
22005;SDS011;11167;46.988;15.470;2022-09-01T08:09:29;2.40;;;2.20;;
22005;SDS011;11167;46.988;15.470;2022-09-01T08:11:31;2.45;;;1.90;;
22005;SDS011;11167;46.988;15.470;2022-09-01T08:13:33;2.50;;;2.30;;
22005;SDS011;11167;46.988;15.470;2022-09-01T08:15:38;2.45;;;2.25;;
22005;SDS011;11167;46.988;15.470;2022-09-01T08:17:40;2.02;;;1.92;;
22005;SDS011;11167;46.988;15.470;2022-09-01T08:19:41;2.45;;;2.15;;
22005;SDS011;11167;46.988;15.470;2022-09-01T08:21:43;2.30;;;2.10;;
22005;SDS011;11167;46.988;15.470;2022-09-01T08:23:45;2.10;;;1.90;;
22005;SDS011;11167;46.988;15.470;2022-09-01T08:25:47;2.65;;;2.30;;
22005;SDS011;11167;46.988;15.470;2022-09-01T08:27:50;2.37;;;2.17;;
22005;SDS011;11167;46.988;15.470;2022-09-01T08:29:55;2.58;;;2.33;;
22005;SDS011;11167;46.988;15.470;2022-09-01T08:32:01;2.27;;;2.08;;
22005;SDS011;11167;46.988;15.470;2022-09-01T08:34:04;2.35;;;2.12;;
22005;SDS011;11167;46.988;15.470;2022-09-01T08:36:06;2.50;;;2.30;;
22005;SDS011;11167;46.988;15.470;2022-09-01T08:38:40;2.70;;;2.22;;
22005;SDS011;11167;46.988;15.470;2022-09-01T08:40:48;2.20;;;2.00;;
22005;SDS011;11167;46.988;15.470;2022-09-01T08:47:05;2.35;;;2.00;;
22005;SDS011;11167;46.988;15.470;2022-09-01T08:49:12;2.30;;;1.80;;
22005;SDS011;11167;46.988;15.470;2022-09-01T08:53:41;1.90;;;1.80;;
22005;SDS011;11167;46.988;15.470;2022-09-01T08:56:01;2.00;;;1.80;;
22005;SDS011;11167;46.988;15.470;2022-09-01T08:58:02;1.90;;;1.80;;
22005;SDS011;11167;46.988;15.470;2022-09-01T09:00:05;1.90;;;1.80;;
22005;SDS011;11167;46.988;15.470;2022-09-01T09:07:00;2.05;;;1.77;;
22005;SDS011;11167;46.988;15.470;2022-09-01T09:09:17;1.98;;;1.85;;
22005;SDS011;11167;46.988;15.470;2022-09-01T09:11:26;2.30;;;1.70;;
22005;SDS011;11167;46.988;15.470;2022-09-01T09:16:05;1.82;;;1.72;;
22005;SDS011;11167;46.988;15.470;2022-09-01T09:18:15;2.00;;;1.80;;
22005;SDS011;11167;46.988;15.470;2022-09-01T09:20:18;2.12;;;1.82;;
22005;SDS011;11167;46.988;15.470;2022-09-01T09:22:19;2.22;;;1.57;;
22005;SDS011;11167;46.988;15.470;2022-09-01T09:26:53;2.20;;;1.80;;
22005;SDS011;11167;46.988;15.470;2022-09-01T09:28:58;2.02;;;1.80;;
22005;SDS011;11167;46.988;15.470;2022-09-01T09:33:37;1.77;;;1.67;;
22005;SDS011;11167;46.988;15.470;2022-09-01T09:35:38;1.60;;;1.50;;
22005;SDS011;11167;46.988;15.470;2022-09-01T09:37:41;2.08;;;1.87;;
22005;SDS011;11167;46.988;15.470;2022-09-01T09:39:42;1.90;;;1.60;;
22005;SDS011;11167;46.988;15.470;2022-09-01T09:42:00;1.70;;;1.60;;
22005;SDS011;11167;46.988;15.470;2022-09-01T09:43:56;1.92;;;1.80;;
22005;SDS011;11167;46.988;15.470;2022-09-01T09:46:19;2.80;;;1.80;;
22005;SDS011;11167;46.988;15.470;2022-09-01T09:48:26;1.70;;;1.60;;
22005;SDS011;11167;46.988;15.470;2022-09-01T09:50:35;2.52;;;1.77;;
22005;SDS011;11167;46.988;15.470;2022-09-01T09:52:35;1.92;;;1.60;;
22005;SDS011;11167;46.988;15.470;2022-09-01T09:54:37;1.80;;;1.65;;
22005;SDS011;11167;46.988;15.470;2022-09-01T09:58:45;2.22;;;1.95;;
22005;SDS011;11167;46.988;15.470;2022-09-01T10:00:57;1.85;;;1.75;;
22005;SDS011;11167;46.988;15.470;2022-09-01T10:03:02;1.90;;;1.80;;
22005;SDS011;11167;46.988;15.470;2022-09-01T10:05:26;1.70;;;1.60;;
22005;SDS011;11167;46.988;15.470;2022-09-01T10:07:33;1.80;;;1.70;;
22005;SDS011;11167;46.988;15.470;2022-09-01T10:09:36;2.17;;;1.98;;
22005;SDS011;11167;46.988;15.470;2022-09-01T10:11:40;1.70;;;1.60;;
22005;SDS011;11167;46.988;15.470;2022-09-01T10:13:43;1.85;;;1.70;;
22005;SDS011;11167;46.988;15.470;2022-09-01T10:15:52;1.77;;;1.67;;
22005;SDS011;11167;46.988;15.470;2022-09-01T10:17:52;2.02;;;1.82;;
22005;SDS011;11167;46.988;15.470;2022-09-01T10:20:00;1.80;;;1.70;;
22005;SDS011;11167;46.988;15.470;2022-09-01T10:22:01;2.42;;;1.72;;
22005;SDS011;11167;46.988;15.470;2022-09-01T10:26:28;1.90;;;1.70;;
22005;SDS011;11167;46.988;15.470;2022-09-01T10:28:24;2.15;;;1.80;;
22005;SDS011;11167;46.988;15.470;2022-09-01T10:30:29;2.10;;;1.67;;
22005;SDS011;11167;46.988;15.470;2022-09-01T10:32:32;1.80;;;1.60;;
22005;SDS011;11167;46.988;15.470;2022-09-01T10:34:36;1.70;;;1.60;;
22005;SDS011;11167;46.988;15.470;2022-09-01T10:36:38;2.00;;;1.80;;
22005;SDS011;11167;46.988;15.470;2022-09-01T10:38:41;2.22;;;1.70;;
22005;SDS011;11167;46.988;15.470;2022-09-01T10:40:44;2.15;;;1.62;;
22005;SDS011;11167;46.988;15.470;2022-09-01T10:42:48;1.67;;;1.57;;
22005;SDS011;11167;46.988;15.470;2022-09-01T10:44:56;1.75;;;1.60;;
22005;SDS011;11167;46.988;15.470;2022-09-01T10:47:02;1.55;;;1.45;;
22005;SDS011;11167;46.988;15.470;2022-09-01T10:49:12;1.47;;;1.37;;
22005;SDS011;11167;46.988;15.470;2022-09-01T10:55:38;1.60;;;1.50;;
22005;SDS011;11167;46.988;15.470;2022-09-01T10:57:50;1.77;;;1.67;;
22005;SDS011;11167;46.988;15.470;2022-09-01T10:59:52;1.80;;;1.70;;
22005;SDS011;11167;46.988;15.470;2022-09-01T11:02:03;2.03;;;1.70;;
22005;SDS011;11167;46.988;15.470;2022-09-01T11:04:11;2.42;;;1.90;;
22005;SDS011;11167;46.988;15.470;2022-09-01T11:06:42;1.80;;;1.70;;
22005;SDS011;11167;46.988;15.470;2022-09-01T11:10:43;1.92;;;1.70;;
22005;SDS011;11167;46.988;15.470;2022-09-01T11:15:38;2.20;;;1.80;;
22005;SDS011;11167;46.988;15.470;2022-09-01T11:19:53;1.77;;;1.67;;
22005;SDS011;11167;46.988;15.470;2022-09-01T11:22:27;1.70;;;1.60;;
22005;SDS011;11167;46.988;15.470;2022-09-01T11:26:45;1.70;;;1.60;;
22005;SDS011;11167;46.988;15.470;2022-09-01T11:28:47;1.40;;;1.30;;
22005;SDS011;11167;46.988;15.470;2022-09-01T11:30:55;1.67;;;1.57;;
22005;SDS011;11167;46.988;15.470;2022-09-01T11:33:07;1.47;;;1.37;;
22005;SDS011;11167;46.988;15.470;2022-09-01T11:35:13;2.10;;;1.65;;
22005;SDS011;11167;46.988;15.470;2022-09-01T11:37:15;1.52;;;1.42;;
22005;SDS011;11167;46.988;15.470;2022-09-01T11:41:24;1.95;;;1.57;;
22005;SDS011;11167;46.988;15.470;2022-09-01T11:43:44;1.90;;;1.40;;
22005;SDS011;11167;46.988;15.470;2022-09-01T11:48:01;1.65;;;1.45;;
22005;SDS011;11167;46.988;15.470;2022-09-01T11:50:16;1.70;;;1.60;;
22005;SDS011;11167;46.988;15.470;2022-09-01T11:52:19;1.60;;;1.40;;
22005;SDS011;11167;46.988;15.470;2022-09-01T11:54:23;1.55;;;1.45;;
22005;SDS011;11167;46.988;15.470;2022-09-01T11:56:25;1.60;;;1.50;;
22005;SDS011;11167;46.988;15.470;2022-09-01T12:00:33;1.70;;;1.60;;
22005;SDS011;11167;46.988;15.470;2022-09-01T12:02:44;1.80;;;1.50;;
22005;SDS011;11167;46.988;15.470;2022-09-01T12:04:48;2.00;;;1.55;;
22005;SDS011;11167;46.988;15.470;2022-09-01T12:06:51;1.52;;;1.42;;
22005;SDS011;11167;46.988;15.470;2022-09-01T12:09:09;1.62;;;1.50;;
22005;SDS011;11167;46.988;15.470;2022-09-01T12:11:12;1.80;;;1.60;;
22005;SDS011;11167;46.988;15.470;2022-09-01T12:13:22;3.00;;;1.40;;
22005;SDS011;11167;46.988;15.470;2022-09-01T12:15:24;1.40;;;1.30;;
22005;SDS011;11167;46.988;15.470;2022-09-01T12:17:26;1.95;;;1.30;;
22005;SDS011;11167;46.988;15.470;2022-09-01T12:19:29;1.77;;;1.40;;
22005;SDS011;11167;46.988;15.470;2022-09-01T12:21:36;1.35;;;1.25;;
22005;SDS011;11167;46.988;15.470;2022-09-01T12:23:43;1.30;;;1.20;;
22005;SDS011;11167;46.988;15.470;2022-09-01T12:25:44;1.55;;;1.45;;
22005;SDS011;11167;46.988;15.470;2022-09-01T12:27:46;2.45;;;1.47;;
22005;SDS011;11167;46.988;15.470;2022-09-01T12:29:47;1.50;;;1.40;;
22005;SDS011;11167;46.988;15.470;2022-09-01T12:31:50;2.92;;;1.27;;
22005;SDS011;11167;46.988;15.470;2022-09-01T12:33:53;1.27;;;1.17;;
22005;SDS011;11167;46.988;15.470;2022-09-01T12:38:28;2.27;;;1.60;;
22005;SDS011;11167;46.988;15.470;2022-09-01T12:40:31;1.37;;;1.27;;
22005;SDS011;11167;46.988;15.470;2022-09-01T12:42:33;1.70;;;1.40;;
22005;SDS011;11167;46.988;15.470;2022-09-01T12:46:43;1.30;;;1.20;;
22005;SDS011;11167;46.988;15.470;2022-09-01T12:48:44;1.52;;;1.15;;
22005;SDS011;11167;46.988;15.470;2022-09-01T12:50:48;1.40;;;1.30;;
22005;SDS011;11167;46.988;15.470;2022-09-01T12:52:51;1.70;;;1.20;;
22005;SDS011;11167;46.988;15.470;2022-09-01T12:57:05;1.40;;;1.20;;
22005;SDS011;11167;46.988;15.470;2022-09-01T12:59:08;1.40;;;1.30;;
22005;SDS011;11167;46.988;15.470;2022-09-01T13:01:22;1.20;;;1.10;;
22005;SDS011;11167;46.988;15.470;2022-09-01T13:03:17;1.05;;;0.95;;
22005;SDS011;11167;46.988;15.470;2022-09-01T13:05:24;1.22;;;1.12;;
22005;SDS011;11167;46.988;15.470;2022-09-01T13:07:27;1.35;;;1.25;;
22005;SDS011;11167;46.988;15.470;2022-09-01T13:09:28;1.10;;;0.85;;
22005;SDS011;11167;46.988;15.470;2022-09-01T13:11:29;1.30;;;1.05;;
22005;SDS011;11167;46.988;15.470;2022-09-01T13:13:31;1.02;;;1.00;;
22005;SDS011;11167;46.988;15.470;2022-09-01T13:15:34;1.25;;;1.10;;
22005;SDS011;11167;46.988;15.470;2022-09-01T13:17:37;1.25;;;0.95;;
22005;SDS011;11167;46.988;15.470;2022-09-01T13:19:39;1.50;;;1.22;;
22005;SDS011;11167;46.988;15.470;2022-09-01T13:21:40;1.27;;;1.00;;
22005;SDS011;11167;46.988;15.470;2022-09-01T13:23:41;1.40;;;1.10;;
22005;SDS011;11167;46.988;15.470;2022-09-01T13:25:43;1.45;;;1.15;;